createdAt,value
2018-02-14T00:00:32.706Z,78.50
2018-02-14T00:03:00.274Z,78.50
2018-02-14T00:05:28.441Z,78.60
2018-02-14T00:07:56.814Z,79.20
2018-02-14T00:10:24.389Z,79.20
2018-02-14T00:12:51.985Z,79.60
2018-02-14T00:15:20.330Z,79.60
2018-02-14T00:17:47.902Z,79.60
2018-02-14T00:20:15.504Z,79.30
2018-02-14T00:22:43.841Z,79.40
2018-02-14T00:25:11.451Z,79.40
2018-02-14T00:27:39.055Z,79.80
2018-02-14T00:30:06.633Z,79.80
2018-02-14T00:32:34.238Z,80.10
2018-02-14T00:35:01.815Z,80.00
2018-02-14T00:37:29.424Z,80.10
2018-02-14T00:39:57.025Z,80.00
2018-02-14T00:42:24.606Z,79.90
2018-02-14T00:44:52.202Z,80.00
2018-02-14T00:47:19.777Z,80.30
2018-02-14T00:49:47.378Z,80.10
2018-02-14T00:52:14.981Z,80.10
2018-02-14T00:54:43.326Z,79.90
2018-02-14T00:57:10.942Z,79.90
2018-02-14T00:59:38.522Z,79.90
2018-02-14T01:02:06.899Z,79.90
2018-02-14T01:04:35.264Z,80.40
2018-02-14T01:07:02.841Z,79.80
2018-02-14T01:09:30.451Z,80.00
2018-02-14T01:11:58.789Z,80.10
2018-02-14T01:14:26.387Z,80.10
2018-02-14T01:16:53.997Z,79.80
2018-02-14T01:19:21.578Z,79.80
2018-02-14T01:21:50.105Z,79.80
2018-02-14T01:24:17.681Z,80.10
2018-02-14T01:26:45.278Z,80.20
2018-02-14T01:29:12.882Z,80.00
2018-02-14T01:31:40.453Z,80.10
2018-02-14T01:34:08.053Z,80.30
2018-02-14T01:36:36.395Z,80.40
2018-02-14T01:39:04.810Z,80.70
2018-02-14T01:41:32.420Z,80.70
2018-02-14T01:43:59.998Z,80.70
2018-02-14T01:46:27.612Z,80.50
2018-02-14T01:48:55.958Z,80.80
2018-02-14T01:51:23.566Z,80.60
2018-02-14T01:53:52.087Z,79.70
2018-02-14T01:56:19.658Z,80.20
2018-02-14T01:58:47.270Z,80.10
2018-02-14T02:01:14.854Z,79.80
2018-02-14T02:03:42.461Z,80.40
2018-02-14T02:06:10.838Z,80.50
2018-02-14T02:08:38.418Z,80.40
2018-02-14T02:11:06.798Z,81.60
2018-02-14T02:13:34.378Z,80.70
2018-02-14T02:16:02.742Z,80.90
2018-02-14T02:18:30.352Z,80.70
2018-02-14T02:20:58.715Z,80.40
2018-02-14T02:23:26.319Z,80.40
2018-02-14T02:25:54.654Z,80.60
2018-02-14T02:28:22.262Z,80.50
2018-02-14T02:30:49.899Z,80.70
2018-02-14T02:33:17.483Z,80.40
2018-02-14T02:35:45.090Z,80.50
2018-02-14T02:38:12.664Z,79.90
2018-02-14T02:40:42.230Z,80.00
2018-02-14T02:43:09.821Z,80.30
2018-02-14T02:45:37.431Z,80.30
2018-02-14T02:48:05.803Z,80.20
2018-02-14T02:50:33.387Z,80.20
2018-02-14T02:53:00.999Z,80.00
2018-02-14T02:55:28.575Z,80.00
2018-02-14T02:57:56.186Z,80.00
2018-02-14T03:00:23.791Z,80.30
2018-02-14T03:02:52.313Z,80.20
2018-02-14T03:05:19.916Z,80.20
2018-02-14T03:07:47.490Z,80.00
2018-02-14T03:10:15.126Z,79.70
2018-02-14T03:12:42.726Z,79.50
2018-02-14T03:15:10.302Z,79.20
2018-02-14T03:17:37.906Z,79.10
2018-02-14T03:20:05.486Z,79.10
2018-02-14T03:22:33.094Z,79.10
2018-02-14T03:25:00.690Z,80.20
2018-02-14T03:27:28.258Z,79.50
2018-02-14T03:29:55.860Z,79.50
2018-02-14T03:32:23.439Z,79.30
2018-02-14T03:34:51.045Z,79.20
2018-02-14T03:37:19.418Z,79.30
2018-02-14T03:39:46.993Z,79.30
2018-02-14T03:42:14.594Z,79.20
2018-02-14T03:44:42.171Z,79.10
2018-02-14T03:47:09.782Z,78.90
2018-02-14T03:49:37.386Z,78.90
2018-02-14T03:52:04.961Z,78.90
2018-02-14T03:54:33.326Z,78.90
2018-02-14T03:57:00.925Z,78.90
2018-02-14T03:59:28.532Z,78.90
2018-02-14T04:01:56.135Z,79.20
2018-02-14T04:04:23.709Z,79.00
2018-02-14T04:06:51.316Z,79.30
2018-02-14T04:09:19.660Z,80.10
2018-02-14T04:11:47.268Z,80.10
2018-02-14T04:14:14.877Z,80.40
2018-02-14T04:16:42.441Z,80.60
2018-02-14T04:19:10.810Z,80.70
2018-02-14T04:21:38.386Z,80.70
2018-02-14T04:24:06.010Z,80.70
2018-02-14T04:26:33.626Z,80.20
2018-02-14T04:29:01.202Z,80.10
2018-02-14T04:31:28.826Z,80.10
2018-02-14T04:33:56.425Z,80.00
2018-02-14T04:36:24.037Z,80.40
2018-02-14T04:38:52.406Z,80.50
2018-02-14T04:41:19.977Z,80.50
2018-02-14T04:43:47.682Z,80.60
2018-02-14T04:46:15.258Z,81.10
2018-02-14T04:48:42.873Z,81.10
2018-02-14T04:51:10.486Z,81.00
2018-02-14T04:53:38.853Z,81.00
2018-02-14T04:56:06.422Z,80.90
2018-02-14T04:58:34.025Z,80.60
2018-02-14T05:01:02.370Z,80.10
2018-02-14T05:03:29.978Z,80.10
2018-02-14T05:05:57.578Z,80.10
2018-02-14T05:08:25.153Z,80.40
2018-02-14T05:10:52.771Z,80.70
2018-02-14T05:13:20.349Z,80.10
2018-02-14T05:15:47.957Z,80.10
2018-02-14T05:18:16.333Z,80.50
2018-02-14T05:20:43.910Z,80.50
2018-02-14T05:23:11.513Z,80.30
2018-02-14T05:25:39.094Z,80.40
2018-02-14T05:28:06.694Z,80.70
2018-02-14T05:30:34.298Z,80.50
2018-02-14T05:33:01.872Z,80.20
2018-02-14T05:35:29.474Z,79.70
2018-02-14T05:37:57.059Z,80.10
2018-02-14T05:40:24.664Z,79.20
2018-02-14T05:42:52.269Z,79.70
2018-02-14T05:45:21.820Z,80.50
2018-02-14T05:47:50.582Z,80.30
2018-02-14T05:50:18.153Z,80.20
2018-02-14T05:52:45.759Z,80.00
2018-02-14T05:55:13.365Z,80.40
2018-02-14T05:57:40.945Z,80.00
2018-02-14T06:00:08.563Z,80.00
2018-02-14T06:02:36.901Z,80.60
2018-02-14T06:05:04.536Z,80.60
2018-02-14T06:07:32.141Z,80.30
2018-02-14T06:09:59.715Z,79.80
2018-02-14T06:12:27.317Z,79.70
2018-02-14T06:14:54.894Z,79.50
2018-02-14T06:17:22.506Z,79.80
2018-02-14T06:19:50.105Z,79.60
2018-02-14T06:22:17.681Z,79.60
2018-02-14T06:24:45.285Z,79.60
2018-02-14T06:27:12.865Z,79.50
2018-02-14T06:29:40.468Z,79.60
2018-02-14T06:32:08.088Z,79.40
2018-02-14T06:34:35.657Z,79.40
2018-02-14T06:37:03.258Z,79.40
2018-02-14T06:39:30.918Z,79.20
2018-02-14T06:41:58.530Z,79.00
2018-02-14T06:44:26.896Z,79.10
2018-02-14T06:46:54.482Z,79.00
2018-02-14T06:49:22.858Z,80.30
2018-02-14T06:51:50.441Z,80.30
2018-02-14T06:54:18.046Z,80.50
2018-02-14T06:56:45.659Z,80.50
2018-02-14T06:59:13.245Z,79.90
2018-02-14T07:01:41.630Z,79.60
2018-02-14T07:04:09.208Z,79.50
2018-02-14T07:06:36.818Z,79.60
2018-02-14T07:09:04.462Z,80.10
2018-02-14T07:11:32.029Z,80.00
2018-02-14T07:13:59.645Z,80.20
2018-02-14T07:16:27.228Z,79.90
2018-02-14T07:18:54.864Z,80.20
2018-02-14T07:21:23.235Z,80.60
2018-02-14T07:23:50.822Z,80.60
2018-02-14T07:26:18.435Z,80.40
2018-02-14T07:28:46.012Z,80.40
2018-02-14T07:31:13.614Z,80.40
2018-02-14T07:33:41.221Z,80.70
2018-02-14T07:36:09.793Z,81.00
2018-02-14T07:38:37.396Z,81.00
2018-02-14T07:41:05.051Z,81.40
2018-02-14T07:46:25.398Z,83.30
2018-02-14T07:48:53.778Z,83.90
2018-02-14T07:51:21.394Z,83.90
2018-02-14T07:53:48.962Z,82.90
2018-02-14T07:56:16.575Z,82.40
2018-02-14T07:58:44.527Z,81.60
2018-02-14T08:01:12.966Z,75.50
2018-02-14T08:03:40.561Z,75.40
2018-02-14T08:06:08.899Z,75.40
2018-02-14T08:08:36.506Z,74.80
2018-02-14T08:11:04.089Z,75.50
2018-02-14T08:13:31.695Z,72.40
2018-02-14T08:15:59.294Z,71.50
2018-02-14T08:18:27.026Z,71.40
2018-02-14T08:20:54.653Z,70.90
2018-02-14T08:23:22.237Z,70.40
2018-02-14T08:25:49.928Z,71.90
2018-02-14T08:28:18.633Z,70.80
2018-02-14T08:30:46.214Z,71.10
2018-02-14T08:33:14.587Z,70.30
2018-02-14T08:35:42.158Z,70.30
2018-02-14T08:38:09.778Z,70.30
2018-02-14T08:40:37.385Z,71.00
2018-02-14T08:43:04.957Z,72.50
2018-02-14T08:45:32.563Z,75.70
2018-02-14T08:48:00.143Z,76.90
2018-02-14T08:50:28.518Z,71.80
2018-02-14T08:52:56.125Z,71.80
2018-02-14T08:55:25.777Z,71.70
2018-02-14T08:57:53.381Z,72.70
2018-02-14T09:00:20.980Z,72.50
2018-02-14T09:02:49.359Z,67.80
2018-02-14T09:05:16.966Z,67.70
2018-02-14T09:07:44.533Z,64.00
2018-02-14T09:10:12.134Z,63.40
2018-02-14T09:12:39.723Z,67.30
2018-02-14T09:15:07.679Z,64.50
2018-02-14T09:17:35.297Z,64.00
2018-02-14T09:20:02.874Z,61.50
2018-02-14T09:22:31.099Z,64.00
2018-02-14T09:24:58.729Z,64.20
2018-02-14T09:27:28.317Z,61.90
2018-02-14T09:29:56.643Z,62.30
2018-02-14T09:32:25.204Z,61.20
2018-02-14T09:34:52.936Z,61.20
2018-02-14T09:37:20.582Z,61.30
2018-02-14T09:39:48.273Z,63.70
2018-02-14T09:42:17.014Z,64.10
2018-02-14T09:44:57.535Z,64.00
2018-02-14T09:47:25.593Z,64.50
2018-02-14T09:49:53.283Z,64.80
2018-02-14T09:52:21.131Z,64.20
2018-02-14T09:54:49.229Z,63.20
2018-02-14T09:57:17.223Z,64.50
2018-02-14T09:59:45.849Z,63.50
2018-02-14T10:02:14.395Z,63.70
2018-02-14T10:04:42.328Z,63.70
2018-02-14T10:07:10.717Z,63.30
2018-02-14T10:09:38.615Z,63.50
2018-02-14T10:12:06.659Z,64.10
2018-02-14T10:14:34.442Z,64.70
2018-02-14T10:17:02.983Z,64.10
2018-02-14T10:19:30.610Z,64.10
2018-02-14T10:21:58.268Z,63.30
2018-02-14T10:24:26.077Z,62.50
2018-02-14T10:26:54.474Z,62.40
2018-02-14T10:29:22.966Z,60.90
2018-02-14T10:31:51.384Z,62.80
2018-02-14T10:34:19.042Z,62.80
2018-02-14T10:36:46.726Z,63.70
2018-02-14T10:39:14.379Z,63.80
2018-02-14T10:41:42.795Z,63.80
2018-02-14T10:44:10.428Z,63.70
2018-02-14T10:46:38.081Z,64.20
2018-02-14T10:49:05.768Z,63.00
2018-02-14T10:51:33.394Z,63.30
2018-02-14T10:54:01.269Z,64.30
2018-02-14T10:56:28.894Z,63.40
2018-02-14T10:58:56.542Z,64.40
2018-02-14T11:01:29.707Z,64.50
2018-02-14T11:03:58.129Z,62.00
2018-02-14T11:06:31.565Z,62.00
2018-02-14T11:08:59.227Z,63.10
2018-02-14T11:11:26.911Z,62.70
2018-02-14T11:13:54.550Z,61.90
2018-02-14T11:16:22.223Z,62.00
2018-02-14T11:18:49.851Z,58.20
2018-02-14T11:21:17.484Z,59.90
2018-02-14T11:23:45.170Z,60.30
2018-02-14T11:34:59.279Z,57.90
2018-02-14T11:37:26.996Z,56.30
2018-02-14T11:39:54.658Z,56.30
2018-02-14T11:42:22.284Z,56.80
2018-02-14T11:44:49.951Z,56.40
2018-02-14T11:47:17.574Z,55.50
2018-02-14T11:49:45.239Z,54.50
2018-02-14T11:58:04.982Z,53.70
2018-02-14T12:00:33.455Z,50.70
2018-02-14T12:03:01.135Z,50.70
2018-02-14T12:05:28.762Z,52.70
2018-02-14T12:07:56.404Z,51.60
2018-02-14T12:10:24.819Z,53.90
2018-02-14T12:12:52.471Z,53.90
2018-02-14T12:15:20.881Z,54.10
2018-02-14T12:17:49.273Z,53.60
2018-02-14T12:20:16.975Z,53.60
2018-02-14T12:22:44.611Z,52.20
2018-02-14T12:25:13.076Z,49.50
2018-02-14T12:27:40.735Z,49.50
2018-02-14T12:30:08.390Z,49.10
2018-02-14T12:32:36.030Z,52.20
2018-02-14T12:35:04.457Z,52.20
2018-02-14T12:37:32.111Z,52.20
2018-02-14T12:39:59.767Z,52.90
2018-02-14T12:42:28.200Z,49.60
2018-02-14T12:45:20.169Z,49.60
2018-02-14T12:47:47.835Z,46.30
2018-02-14T12:50:15.502Z,45.60
2018-02-14T12:52:43.466Z,47.30
2018-02-14T12:55:11.268Z,46.00
2018-02-14T12:57:39.065Z,51.00
2018-02-14T13:00:06.855Z,51.00
2018-02-14T13:02:34.655Z,47.40
2018-02-14T13:05:03.097Z,47.00
2018-02-14T13:07:30.716Z,47.00
2018-02-14T13:09:59.154Z,51.80
2018-02-14T13:12:26.789Z,51.70
2018-02-14T13:14:55.232Z,55.40
2018-02-14T13:17:22.899Z,55.30
2018-02-14T13:19:50.525Z,47.80
2018-02-14T13:22:18.947Z,51.80
2018-02-14T13:24:46.583Z,51.80
2018-02-14T13:27:15.024Z,50.70
2018-02-14T13:29:42.724Z,50.60
2018-02-14T13:32:10.363Z,54.50
2018-02-14T13:34:38.786Z,52.30
2018-02-14T13:37:06.420Z,52.30
2018-02-14T13:39:34.066Z,54.00
2018-02-14T13:42:02.956Z,53.40
2018-02-14T13:44:30.562Z,53.40
2018-02-14T13:46:58.222Z,53.70
2018-02-14T13:49:26.596Z,49.30
2018-02-14T13:51:54.255Z,49.30
2018-02-14T13:54:21.881Z,50.70
2018-02-14T13:56:49.539Z,52.50
2018-02-14T13:59:18.989Z,51.20
2018-02-14T14:01:46.615Z,52.60
2018-02-14T14:04:14.264Z,52.20
2018-02-14T14:06:41.914Z,50.50
2018-02-14T14:09:09.586Z,49.70
2018-02-14T14:11:37.278Z,59.10
2018-02-14T14:14:04.944Z,68.60
2018-02-14T14:16:32.652Z,71.20
2018-02-14T14:19:00.316Z,62.10
2018-02-14T14:21:28.028Z,70.30
2018-02-14T14:23:57.207Z,69.70
2018-02-14T14:26:24.880Z,69.40
2018-02-14T14:28:52.550Z,64.50
2018-02-14T14:31:20.293Z,59.80
2018-02-14T14:33:47.965Z,67.10
2018-02-14T14:36:15.627Z,68.40
2018-02-14T14:38:43.275Z,62.00
2018-02-14T14:41:11.707Z,65.80
2018-02-14T14:43:39.342Z,65.10
2018-02-14T14:46:07.779Z,76.20
2018-02-14T14:48:35.458Z,76.20
2018-02-14T14:51:03.070Z,67.70
2018-02-14T14:53:30.764Z,71.40
2018-02-14T14:55:59.166Z,75.10
2018-02-14T14:58:26.847Z,74.90
2018-02-14T15:00:55.740Z,78.70
2018-02-14T15:03:24.131Z,53.70
2018-02-14T15:05:52.527Z,51.30
2018-02-14T15:08:21.007Z,51.10
2018-02-14T15:10:49.556Z,48.30
2018-02-14T15:13:17.423Z,48.30
2018-02-14T15:15:45.125Z,48.80
2018-02-14T15:18:12.834Z,49.10
2018-02-14T15:20:40.622Z,47.30
2018-02-14T15:23:08.426Z,46.70
2018-02-14T15:25:36.141Z,47.60
2018-02-14T15:28:03.948Z,48.30
2018-02-14T15:30:32.832Z,47.00
2018-02-14T15:33:00.580Z,47.00
2018-02-14T15:35:28.565Z,48.60
2018-02-14T15:37:56.315Z,44.40
2018-02-14T15:40:24.374Z,46.90
2018-02-14T15:42:53.281Z,50.10
2018-02-14T15:45:21.838Z,52.00
2018-02-14T15:47:49.505Z,51.90
2018-02-14T15:50:17.209Z,49.80
2018-02-14T15:52:44.988Z,47.00
2018-02-14T15:55:14.095Z,47.60
2018-02-14T15:57:44.131Z,47.50
2018-02-14T16:00:12.933Z,49.00
2018-02-14T16:02:41.392Z,49.70
2018-02-14T16:05:09.183Z,49.70
2018-02-14T16:07:43.190Z,50.40
2018-02-14T16:10:11.227Z,52.60
2018-02-14T16:12:39.888Z,54.30
2018-02-14T16:15:07.659Z,54.30
2018-02-14T16:17:35.997Z,55.10
2018-02-14T16:20:03.773Z,54.50
2018-02-14T16:22:32.606Z,54.10
2018-02-14T16:25:00.767Z,54.40
2018-02-14T16:27:30.005Z,55.10
2018-02-14T16:29:58.305Z,55.00
2018-02-14T16:32:26.014Z,55.10
2018-02-14T16:34:54.621Z,55.70
2018-02-14T16:37:23.231Z,55.10
2018-02-14T16:39:51.015Z,55.10
2018-02-14T16:42:19.486Z,55.20
2018-02-14T16:44:47.658Z,55.10
2018-02-14T16:47:15.359Z,56.50
2018-02-14T16:49:44.131Z,56.20
2018-02-14T16:52:12.068Z,56.20
2018-02-14T16:54:40.382Z,56.80
2018-02-14T16:57:08.032Z,57.10
2018-02-14T16:59:35.835Z,57.00
2018-02-14T17:02:03.878Z,56.50
2018-02-14T17:04:31.779Z,55.90
2018-02-14T17:06:59.800Z,56.00
2018-02-14T17:09:27.546Z,55.80
2018-02-14T17:11:55.360Z,55.90
2018-02-14T17:14:23.167Z,56.00
2018-02-14T17:16:52.243Z,56.20
2018-02-14T17:19:22.594Z,56.20
2018-02-14T17:21:52.311Z,55.80
2018-02-14T17:24:20.873Z,55.80
2018-02-14T17:27:07.612Z,56.30
2018-02-14T17:29:36.408Z,56.40
2018-02-14T17:32:04.277Z,56.70
2018-02-14T17:34:33.086Z,56.20
2018-02-14T17:37:00.898Z,56.90
2018-02-14T17:39:28.648Z,57.10
2018-02-14T17:41:56.320Z,56.50
2018-02-14T17:44:23.987Z,56.60
2018-02-14T17:46:51.627Z,57.10
2018-02-14T17:49:20.078Z,57.70
2018-02-14T17:51:47.875Z,57.70
2018-02-14T17:54:15.763Z,58.00
2018-02-14T17:56:44.742Z,58.10
2018-02-14T17:59:12.371Z,58.00
2018-02-14T18:01:40.026Z,58.70
2018-02-14T18:04:08.508Z,57.70
2018-02-14T18:06:36.956Z,57.40
2018-02-14T18:09:05.357Z,57.40
2018-02-14T18:11:33.263Z,57.00
2018-02-14T18:14:02.106Z,57.50
2018-02-14T18:16:29.837Z,57.40
2018-02-14T18:18:57.680Z,57.40
2018-02-14T18:21:25.976Z,57.10
2018-02-14T18:23:53.890Z,57.70
2018-02-14T18:26:21.698Z,58.30
2018-02-14T18:28:49.529Z,58.90
2018-02-14T18:31:17.356Z,58.90
2018-02-14T18:33:45.559Z,58.80
2018-02-14T18:36:13.530Z,58.30
2018-02-14T18:38:42.122Z,58.20
2018-02-14T18:41:10.737Z,58.40
2018-02-14T18:43:38.705Z,58.40
2018-02-14T18:46:06.699Z,58.10
2018-02-14T18:48:34.371Z,58.30
2018-02-14T18:51:02.529Z,58.90
2018-02-14T18:53:30.219Z,59.10
2018-02-14T18:55:58.770Z,58.50
2018-02-14T18:58:26.478Z,58.70
2018-02-14T19:00:54.430Z,58.90
2018-02-14T19:03:23.667Z,59.80
2018-02-14T19:05:51.503Z,60.00
2018-02-14T19:08:19.531Z,60.10
2018-02-14T19:10:48.070Z,61.10
2018-02-14T19:13:15.788Z,61.00
2018-02-14T19:15:44.072Z,60.90
2018-02-14T19:18:12.123Z,60.60
2018-02-14T19:20:40.167Z,60.50
2018-02-14T19:23:08.746Z,60.00
2018-02-14T19:25:36.575Z,60.00
2018-02-14T19:28:04.447Z,60.30
2018-02-14T19:30:32.602Z,60.40
2018-02-14T19:33:01.235Z,61.10
2018-02-14T19:35:29.011Z,61.00
2018-02-14T19:37:56.993Z,61.00
2018-02-14T19:40:25.538Z,61.20
2018-02-14T19:42:53.356Z,61.10
2018-02-14T19:45:21.411Z,61.40
2018-02-14T19:47:49.512Z,61.80
2018-02-14T19:50:18.436Z,64.10
2018-02-14T19:52:46.301Z,64.10
2018-02-14T19:55:17.688Z,65.40
2018-02-14T19:57:45.540Z,66.00
2018-02-14T20:00:16.201Z,66.80
2018-02-14T20:02:45.326Z,66.80
2018-02-14T20:05:13.901Z,66.20
2018-02-14T20:07:41.543Z,65.70
2018-02-14T20:10:09.301Z,65.80
2018-02-14T20:12:37.062Z,65.30
2018-02-14T20:15:05.068Z,65.50
2018-02-14T20:17:33.354Z,65.40
2018-02-14T20:20:01.309Z,65.70
2018-02-14T20:22:29.972Z,66.50
2018-02-14T20:24:57.683Z,66.20
2018-02-14T20:27:39.234Z,66.30
2018-02-14T20:30:07.679Z,66.00
2018-02-14T20:32:35.341Z,65.90
2018-02-14T20:35:03.032Z,65.90
2018-02-14T20:37:30.663Z,65.50
2018-02-14T20:39:59.099Z,66.20
2018-02-14T20:42:26.760Z,66.20
2018-02-14T20:44:54.659Z,66.20
2018-02-14T20:47:22.343Z,66.20
2018-02-14T20:49:49.986Z,66.20
2018-02-14T20:52:18.081Z,66.20
2018-02-14T20:55:06.529Z,66.60
2018-02-14T20:57:34.724Z,66.30
2018-02-14T21:00:03.303Z,66.00
2018-02-14T21:02:30.943Z,66.00
2018-02-14T21:04:58.665Z,66.00
2018-02-14T21:07:26.319Z,66.00
2018-02-14T21:09:54.743Z,65.90
2018-02-14T21:12:22.413Z,65.90
2018-02-14T21:14:50.043Z,66.40
2018-02-14T21:17:17.735Z,66.50
2018-02-14T21:19:45.392Z,66.90
2018-02-14T21:22:13.196Z,66.90
2018-02-14T21:24:40.979Z,66.80
2018-02-14T21:27:08.620Z,66.90
2018-02-14T21:29:36.286Z,67.00
2018-02-14T21:32:03.939Z,67.40
2018-02-14T21:34:31.676Z,67.20
2018-02-14T21:36:59.771Z,68.10
2018-02-14T21:39:27.415Z,67.40
2018-02-14T21:41:56.108Z,67.60
2018-02-14T21:44:24.507Z,67.60
2018-02-14T21:46:52.949Z,67.60
2018-02-14T21:49:22.708Z,67.50
2018-02-14T21:51:50.380Z,68.10
2018-02-14T21:54:18.029Z,67.80
2018-02-14T21:56:45.831Z,67.60
2018-02-14T21:59:13.523Z,67.70
2018-02-14T22:01:41.961Z,68.20
2018-02-14T22:04:09.585Z,68.10
2018-02-14T22:06:38.024Z,67.70
2018-02-14T22:09:05.627Z,67.70
2018-02-14T22:11:33.295Z,67.90
2018-02-14T22:14:00.923Z,68.00
2018-02-14T22:16:28.587Z,68.40
2018-02-14T22:18:57.863Z,68.20
2018-02-14T22:21:25.610Z,68.10
2018-02-14T22:23:57.633Z,68.00
2018-02-14T22:26:25.372Z,67.90
2018-02-14T22:28:53.816Z,68.40
2018-02-14T22:31:22.226Z,68.60
2018-02-14T22:33:49.854Z,68.50
2018-02-14T22:36:17.504Z,68.90
2018-02-14T22:38:45.183Z,68.70
2018-02-14T22:41:13.346Z,68.80
2018-02-14T22:43:41.005Z,68.90
2018-02-14T22:52:02.566Z,68.60
2018-02-14T22:54:30.362Z,68.70
2018-02-14T22:56:58.428Z,68.80
2018-02-14T22:59:26.079Z,69.00
2018-02-14T23:01:53.725Z,69.30
2018-02-14T23:04:21.386Z,69.40
2018-02-14T23:06:49.955Z,69.50
2018-02-14T23:09:17.584Z,69.50
2018-02-14T23:11:45.359Z,69.70
2018-02-14T23:14:13.067Z,69.60
2018-02-14T23:16:40.707Z,69.60
2018-02-14T23:19:09.338Z,69.60
2018-02-14T23:21:38.209Z,69.50
2018-02-14T23:24:06.551Z,69.80
2018-02-14T23:26:34.246Z,69.80
2018-02-14T23:29:02.666Z,69.90
2018-02-14T23:31:30.419Z,69.90
2018-02-14T23:33:58.431Z,70.00
2018-02-14T23:36:26.634Z,70.10
2018-02-14T23:38:54.411Z,70.40
2018-02-14T23:47:08.463Z,70.40
2018-02-14T23:49:36.737Z,70.60
2018-02-14T23:52:05.174Z,70.90
2018-02-14T23:54:33.795Z,70.90
2018-02-14T23:57:01.412Z,70.90
2018-02-14T23:59:29.083Z,71.70
